Hastings, Nebraska
Current Conditions -  °F | °C
As of 11:53 PM on Thursday 30 Oct 2014 (Local Time) from KHSI Reporting Station
Clear Clear  
Wind Chill: 32°   Ceiling: Unl
Heat Index: 39°   Visibility: 10mi
Dew Point: 32°   Wind: 10mph
Humidity: 76%   Direction: 10°N
Pressure: 30.41"   Gusts: NA
Location:  40.59°N, 98.39°W
Report Text: KHSI 310453Z AUTO 01009KT 10SM CLR 04/00 A3041 RMK AO2 SLP301 T00390000
Loading
Personal Weather Stations






























Interactive Weather Map New forecast layout! Learn more

10-Day Weather Forecast

Advertisements
Track Severe Weather on mobile